sensor_id;sensor_type;location;lat;lon;timestamp;P1;durP1;ratioP1;P2;durP2;ratioP2
76693;SDS011;69667;52.136;5.424;2023-05-10T00:01:05;15.55;;;7.95;;
76693;SDS011;69667;52.136;5.424;2023-05-10T00:03:31;18.75;;;8.60;;
76693;SDS011;69667;52.136;5.424;2023-05-10T00:05:58;17.88;;;8.55;;
76693;SDS011;69667;52.136;5.424;2023-05-10T00:08:24;16.70;;;7.93;;
76693;SDS011;69667;52.136;5.424;2023-05-10T00:10:51;20.35;;;8.13;;
76693;SDS011;69667;52.136;5.424;2023-05-10T00:13:18;19.10;;;8.82;;
76693;SDS011;69667;52.136;5.424;2023-05-10T00:15:45;16.13;;;8.15;;
76693;SDS011;69667;52.136;5.424;2023-05-10T00:18:12;17.98;;;9.10;;
76693;SDS011;69667;52.136;5.424;2023-05-10T00:20:38;17.83;;;8.95;;
76693;SDS011;69667;52.136;5.424;2023-05-10T00:23:04;21.25;;;9.70;;
76693;SDS011;69667;52.136;5.424;2023-05-10T00:25:31;27.40;;;11.10;;
76693;SDS011;69667;52.136;5.424;2023-05-10T00:27:57;27.55;;;11.98;;
76693;SDS011;69667;52.136;5.424;2023-05-10T00:30:24;24.00;;;11.13;;
76693;SDS011;69667;52.136;5.424;2023-05-10T00:32:51;28.98;;;12.23;;
76693;SDS011;69667;52.136;5.424;2023-05-10T00:35:18;32.75;;;12.77;;
76693;SDS011;69667;52.136;5.424;2023-05-10T00:37:44;27.00;;;12.25;;
76693;SDS011;69667;52.136;5.424;2023-05-10T00:40:11;29.92;;;12.57;;
76693;SDS011;69667;52.136;5.424;2023-05-10T00:42:38;31.98;;;13.30;;
76693;SDS011;69667;52.136;5.424;2023-05-10T00:45:06;31.15;;;14.05;;
76693;SDS011;69667;52.136;5.424;2023-05-10T00:47:34;33.58;;;13.27;;
76693;SDS011;69667;52.136;5.424;2023-05-10T00:50:01;38.45;;;14.50;;
76693;SDS011;69667;52.136;5.424;2023-05-10T00:52:28;33.83;;;14.70;;
76693;SDS011;69667;52.136;5.424;2023-05-10T00:54:57;42.38;;;15.02;;
76693;SDS011;69667;52.136;5.424;2023-05-10T00:57:24;45.63;;;17.13;;
76693;SDS011;69667;52.136;5.424;2023-05-10T00:59:51;41.10;;;16.23;;
76693;SDS011;69667;52.136;5.424;2023-05-10T01:02:18;35.63;;;16.15;;
76693;SDS011;69667;52.136;5.424;2023-05-10T01:04:44;45.38;;;17.50;;
76693;SDS011;69667;52.136;5.424;2023-05-10T01:07:11;52.17;;;17.33;;
76693;SDS011;69667;52.136;5.424;2023-05-10T01:09:37;48.45;;;17.85;;
76693;SDS011;69667;52.136;5.424;2023-05-10T01:12:04;42.30;;;18.05;;
76693;SDS011;69667;52.136;5.424;2023-05-10T01:14:33;43.97;;;17.52;;
76693;SDS011;69667;52.136;5.424;2023-05-10T01:17:02;47.10;;;18.30;;
76693;SDS011;69667;52.136;5.424;2023-05-10T01:19:29;41.17;;;17.13;;
76693;SDS011;69667;52.136;5.424;2023-05-10T01:25:04;46.40;;;16.58;;
76693;SDS011;69667;52.136;5.424;2023-05-10T01:36:40;44.80;;;16.98;;
76693;SDS011;69667;52.136;5.424;2023-05-10T01:39:24;42.85;;;16.42;;
76693;SDS011;69667;52.136;5.424;2023-05-10T01:42:01;44.67;;;16.52;;
76693;SDS011;69667;52.136;5.424;2023-05-10T01:44:36;41.17;;;15.68;;
76693;SDS011;69667;52.136;5.424;2023-05-10T01:49:40;37.40;;;14.85;;
76693;SDS011;69667;52.136;5.424;2023-05-10T01:52:12;42.88;;;16.05;;
76693;SDS011;69667;52.136;5.424;2023-05-10T01:54:44;45.95;;;16.92;;
76693;SDS011;69667;52.136;5.424;2023-05-10T01:57:16;40.63;;;15.40;;
76693;SDS011;69667;52.136;5.424;2023-05-10T01:59:46;48.22;;;16.95;;
76693;SDS011;69667;52.136;5.424;2023-05-10T02:02:18;45.00;;;17.70;;
76693;SDS011;69667;52.136;5.424;2023-05-10T02:04:47;49.83;;;18.15;;
76693;SDS011;69667;52.136;5.424;2023-05-10T02:07:17;50.83;;;17.52;;
76693;SDS011;69667;52.136;5.424;2023-05-10T02:09:44;47.13;;;17.58;;
76693;SDS011;69667;52.136;5.424;2023-05-10T02:12:15;47.60;;;17.55;;
76693;SDS011;69667;52.136;5.424;2023-05-10T02:14:43;44.20;;;17.65;;
76693;SDS011;69667;52.136;5.424;2023-05-10T02:17:11;48.25;;;19.02;;
76693;SDS011;69667;52.136;5.424;2023-05-10T02:19:38;45.95;;;17.92;;
76693;SDS011;69667;52.136;5.424;2023-05-10T02:22:08;44.35;;;15.93;;
76693;SDS011;69667;52.136;5.424;2023-05-10T02:24:36;45.38;;;17.67;;
76693;SDS011;69667;52.136;5.424;2023-05-10T02:27:04;49.00;;;16.77;;
76693;SDS011;69667;52.136;5.424;2023-05-10T02:29:32;47.08;;;16.98;;
76693;SDS011;69667;52.136;5.424;2023-05-10T02:31:59;47.05;;;17.38;;
76693;SDS011;69667;52.136;5.424;2023-05-10T02:34:28;54.05;;;18.70;;
76693;SDS011;69667;52.136;5.424;2023-05-10T02:36:56;52.60;;;18.23;;
76693;SDS011;69667;52.136;5.424;2023-05-10T02:39:23;43.83;;;16.75;;
76693;SDS011;69667;52.136;5.424;2023-05-10T02:41:51;49.05;;;16.58;;
76693;SDS011;69667;52.136;5.424;2023-05-10T02:44:19;48.10;;;17.02;;
76693;SDS011;69667;52.136;5.424;2023-05-10T02:46:46;47.33;;;17.73;;
76693;SDS011;69667;52.136;5.424;2023-05-10T02:49:14;50.28;;;17.75;;
76693;SDS011;69667;52.136;5.424;2023-05-10T02:51:42;48.15;;;17.80;;
76693;SDS011;69667;52.136;5.424;2023-05-10T02:54:20;46.95;;;18.17;;
76693;SDS011;69667;52.136;5.424;2023-05-10T02:56:54;48.47;;;17.20;;
76693;SDS011;69667;52.136;5.424;2023-05-10T02:59:26;52.67;;;17.67;;
76693;SDS011;69667;52.136;5.424;2023-05-10T03:01:53;50.38;;;18.42;;
76693;SDS011;69667;52.136;5.424;2023-05-10T03:04:20;55.80;;;19.05;;
76693;SDS011;69667;52.136;5.424;2023-05-10T03:06:46;51.92;;;18.63;;
76693;SDS011;69667;52.136;5.424;2023-05-10T03:09:14;55.58;;;19.33;;
76693;SDS011;69667;52.136;5.424;2023-05-10T03:14:42;60.53;;;19.77;;
76693;SDS011;69667;52.136;5.424;2023-05-10T03:17:30;65.30;;;20.58;;
76693;SDS011;69667;52.136;5.424;2023-05-10T03:20:06;63.95;;;21.13;;
76693;SDS011;69667;52.136;5.424;2023-05-10T03:22:37;57.72;;;19.88;;
76693;SDS011;69667;52.136;5.424;2023-05-10T03:25:07;60.92;;;19.80;;
76693;SDS011;69667;52.136;5.424;2023-05-10T03:27:39;59.38;;;19.48;;
76693;SDS011;69667;52.136;5.424;2023-05-10T03:30:08;75.25;;;20.23;;
76693;SDS011;69667;52.136;5.424;2023-05-10T03:32:36;63.92;;;19.48;;
76693;SDS011;69667;52.136;5.424;2023-05-10T03:35:07;66.10;;;19.67;;
76693;SDS011;69667;52.136;5.424;2023-05-10T03:37:35;70.10;;;20.17;;
76693;SDS011;69667;52.136;5.424;2023-05-10T03:40:02;69.40;;;18.95;;
76693;SDS011;69667;52.136;5.424;2023-05-10T03:42:32;62.33;;;18.33;;
76693;SDS011;69667;52.136;5.424;2023-05-10T03:44:58;63.97;;;19.60;;
76693;SDS011;69667;52.136;5.424;2023-05-10T03:47:25;62.85;;;17.92;;
76693;SDS011;69667;52.136;5.424;2023-05-10T03:49:52;58.00;;;19.02;;
76693;SDS011;69667;52.136;5.424;2023-05-10T03:52:18;59.42;;;18.92;;
76693;SDS011;69667;52.136;5.424;2023-05-10T03:54:45;67.97;;;18.55;;
76693;SDS011;69667;52.136;5.424;2023-05-10T03:57:11;61.28;;;18.23;;
76693;SDS011;69667;52.136;5.424;2023-05-10T03:59:38;64.13;;;18.52;;
76693;SDS011;69667;52.136;5.424;2023-05-10T04:02:05;61.55;;;19.00;;
76693;SDS011;69667;52.136;5.424;2023-05-10T04:04:31;61.88;;;18.17;;
76693;SDS011;69667;52.136;5.424;2023-05-10T04:06:58;56.60;;;19.20;;
76693;SDS011;69667;52.136;5.424;2023-05-10T04:09:24;65.75;;;19.58;;
76693;SDS011;69667;52.136;5.424;2023-05-10T04:11:51;65.78;;;19.27;;
76693;SDS011;69667;52.136;5.424;2023-05-10T04:14:17;70.72;;;19.55;;
76693;SDS011;69667;52.136;5.424;2023-05-10T04:16:44;66.13;;;19.42;;
76693;SDS011;69667;52.136;5.424;2023-05-10T04:19:11;68.35;;;21.23;;
76693;SDS011;69667;52.136;5.424;2023-05-10T04:21:37;58.55;;;19.45;;
76693;SDS011;69667;52.136;5.424;2023-05-10T04:24:04;60.55;;;18.33;;
76693;SDS011;69667;52.136;5.424;2023-05-10T04:26:30;57.28;;;16.90;;
76693;SDS011;69667;52.136;5.424;2023-05-10T04:28:57;59.33;;;18.23;;
76693;SDS011;69667;52.136;5.424;2023-05-10T04:31:24;57.42;;;17.10;;
76693;SDS011;69667;52.136;5.424;2023-05-10T04:33:50;61.00;;;17.58;;
76693;SDS011;69667;52.136;5.424;2023-05-10T04:36:17;58.70;;;18.20;;
76693;SDS011;69667;52.136;5.424;2023-05-10T04:38:43;60.83;;;18.77;;
76693;SDS011;69667;52.136;5.424;2023-05-10T04:41:10;66.15;;;18.77;;
76693;SDS011;69667;52.136;5.424;2023-05-10T04:43:37;56.67;;;18.02;;
76693;SDS011;69667;52.136;5.424;2023-05-10T04:46:04;63.55;;;17.88;;
76693;SDS011;69667;52.136;5.424;2023-05-10T04:48:31;57.22;;;18.58;;
76693;SDS011;69667;52.136;5.424;2023-05-10T04:50:58;56.63;;;17.83;;
76693;SDS011;69667;52.136;5.424;2023-05-10T04:53:24;58.85;;;17.95;;
76693;SDS011;69667;52.136;5.424;2023-05-10T04:55:51;62.13;;;19.45;;
76693;SDS011;69667;52.136;5.424;2023-05-10T04:58:17;60.13;;;18.65;;
76693;SDS011;69667;52.136;5.424;2023-05-10T05:00:44;64.82;;;19.88;;
76693;SDS011;69667;52.136;5.424;2023-05-10T05:03:10;65.25;;;18.65;;
76693;SDS011;69667;52.136;5.424;2023-05-10T05:05:37;66.35;;;19.35;;
76693;SDS011;69667;52.136;5.424;2023-05-10T05:08:04;66.05;;;19.08;;
76693;SDS011;69667;52.136;5.424;2023-05-10T05:10:31;60.65;;;17.42;;
76693;SDS011;69667;52.136;5.424;2023-05-10T05:12:58;64.95;;;18.08;;
76693;SDS011;69667;52.136;5.424;2023-05-10T05:15:25;67.32;;;18.27;;
76693;SDS011;69667;52.136;5.424;2023-05-10T05:17:51;61.83;;;19.13;;
76693;SDS011;69667;52.136;5.424;2023-05-10T05:20:18;68.00;;;20.75;;
76693;SDS011;69667;52.136;5.424;2023-05-10T05:22:45;63.60;;;19.33;;
76693;SDS011;69667;52.136;5.424;2023-05-10T05:25:11;60.13;;;19.45;;
76693;SDS011;69667;52.136;5.424;2023-05-10T05:27:39;64.45;;;19.60;;
76693;SDS011;69667;52.136;5.424;2023-05-10T05:30:06;62.08;;;19.35;;
76693;SDS011;69667;52.136;5.424;2023-05-10T05:32:33;58.42;;;19.02;;
76693;SDS011;69667;52.136;5.424;2023-05-10T05:35:00;63.75;;;19.17;;
76693;SDS011;69667;52.136;5.424;2023-05-10T05:37:26;62.92;;;18.35;;
76693;SDS011;69667;52.136;5.424;2023-05-10T05:39:52;63.50;;;20.27;;
76693;SDS011;69667;52.136;5.424;2023-05-10T05:42:21;61.03;;;19.77;;
76693;SDS011;69667;52.136;5.424;2023-05-10T05:44:47;62.47;;;19.98;;
76693;SDS011;69667;52.136;5.424;2023-05-10T05:47:14;57.78;;;19.85;;
76693;SDS011;69667;52.136;5.424;2023-05-10T05:49:40;57.53;;;20.63;;
76693;SDS011;69667;52.136;5.424;2023-05-10T05:52:07;52.65;;;18.50;;
76693;SDS011;69667;52.136;5.424;2023-05-10T05:54:33;50.60;;;17.25;;
76693;SDS011;69667;52.136;5.424;2023-05-10T05:57:00;54.50;;;18.25;;
76693;SDS011;69667;52.136;5.424;2023-05-10T05:59:27;55.40;;;18.60;;
76693;SDS011;69667;52.136;5.424;2023-05-10T06:01:54;58.30;;;18.73;;
76693;SDS011;69667;52.136;5.424;2023-05-10T06:04:20;50.00;;;18.33;;
76693;SDS011;69667;52.136;5.424;2023-05-10T06:06:47;51.58;;;18.50;;
76693;SDS011;69667;52.136;5.424;2023-05-10T06:09:14;57.05;;;19.73;;
76693;SDS011;69667;52.136;5.424;2023-05-10T06:11:40;42.55;;;16.77;;
76693;SDS011;69667;52.136;5.424;2023-05-10T06:14:07;51.63;;;17.67;;
76693;SDS011;69667;52.136;5.424;2023-05-10T06:16:34;45.75;;;17.58;;
76693;SDS011;69667;52.136;5.424;2023-05-10T06:19:01;48.33;;;18.73;;
76693;SDS011;69667;52.136;5.424;2023-05-10T06:21:28;47.25;;;18.83;;
76693;SDS011;69667;52.136;5.424;2023-05-10T06:23:55;48.92;;;16.80;;
76693;SDS011;69667;52.136;5.424;2023-05-10T06:26:21;49.63;;;17.73;;
76693;SDS011;69667;52.136;5.424;2023-05-10T06:28:47;46.92;;;16.75;;
76693;SDS011;69667;52.136;5.424;2023-05-10T06:31:14;44.40;;;18.02;;
76693;SDS011;69667;52.136;5.424;2023-05-10T06:33:41;42.88;;;15.75;;
76693;SDS011;69667;52.136;5.424;2023-05-10T06:36:08;43.83;;;16.00;;
76693;SDS011;69667;52.136;5.424;2023-05-10T06:38:35;41.95;;;15.50;;
76693;SDS011;69667;52.136;5.424;2023-05-10T06:41:01;38.08;;;15.00;;
76693;SDS011;69667;52.136;5.424;2023-05-10T06:43:28;37.97;;;14.95;;
76693;SDS011;69667;52.136;5.424;2023-05-10T06:45:55;34.58;;;14.18;;
76693;SDS011;69667;52.136;5.424;2023-05-10T06:48:21;34.60;;;13.68;;
76693;SDS011;69667;52.136;5.424;2023-05-10T06:50:48;31.33;;;12.85;;
76693;SDS011;69667;52.136;5.424;2023-05-10T06:53:15;34.75;;;14.13;;
76693;SDS011;69667;52.136;5.424;2023-05-10T06:55:42;29.27;;;11.85;;
76693;SDS011;69667;52.136;5.424;2023-05-10T06:58:08;28.98;;;11.82;;
76693;SDS011;69667;52.136;5.424;2023-05-10T07:00:35;31.50;;;11.02;;
76693;SDS011;69667;52.136;5.424;2023-05-10T07:03:05;26.45;;;11.00;;
76693;SDS011;69667;52.136;5.424;2023-05-10T07:05:32;23.38;;;9.80;;
76693;SDS011;69667;52.136;5.424;2023-05-10T07:07:58;22.60;;;9.35;;
76693;SDS011;69667;52.136;5.424;2023-05-10T07:10:25;20.15;;;9.38;;
76693;SDS011;69667;52.136;5.424;2023-05-10T07:12:51;22.35;;;9.27;;
76693;SDS011;69667;52.136;5.424;2023-05-10T07:15:18;18.30;;;8.50;;
76693;SDS011;69667;52.136;5.424;2023-05-10T07:17:45;16.33;;;7.47;;
76693;SDS011;69667;52.136;5.424;2023-05-10T07:20:12;16.95;;;7.80;;
76693;SDS011;69667;52.136;5.424;2023-05-10T07:22:38;16.45;;;7.32;;
76693;SDS011;69667;52.136;5.424;2023-05-10T07:25:05;19.20;;;7.90;;
76693;SDS011;69667;52.136;5.424;2023-05-10T07:27:32;16.38;;;7.90;;
76693;SDS011;69667;52.136;5.424;2023-05-10T07:30:00;15.93;;;7.63;;
76693;SDS011;69667;52.136;5.424;2023-05-10T07:32:29;20.33;;;7.93;;
76693;SDS011;69667;52.136;5.424;2023-05-10T07:35:08;15.55;;;6.95;;
76693;SDS011;69667;52.136;5.424;2023-05-10T07:37:35;14.98;;;7.40;;
76693;SDS011;69667;52.136;5.424;2023-05-10T07:40:02;16.25;;;7.10;;
76693;SDS011;69667;52.136;5.424;2023-05-10T07:42:28;18.52;;;7.97;;
76693;SDS011;69667;52.136;5.424;2023-05-10T07:44:55;17.35;;;7.65;;
76693;SDS011;69667;52.136;5.424;2023-05-10T07:47:22;15.82;;;7.45;;
76693;SDS011;69667;52.136;5.424;2023-05-10T07:49:49;15.73;;;7.18;;
76693;SDS011;69667;52.136;5.424;2023-05-10T07:52:16;17.77;;;8.40;;
76693;SDS011;69667;52.136;5.424;2023-05-10T07:54:42;16.98;;;7.63;;
76693;SDS011;69667;52.136;5.424;2023-05-10T07:57:09;20.27;;;7.88;;
76693;SDS011;69667;52.136;5.424;2023-05-10T07:59:35;16.80;;;7.72;;
76693;SDS011;69667;52.136;5.424;2023-05-10T08:02:02;18.52;;;8.35;;
76693;SDS011;69667;52.136;5.424;2023-05-10T08:04:29;16.13;;;7.28;;
76693;SDS011;69667;52.136;5.424;2023-05-10T08:06:55;17.58;;;7.05;;
76693;SDS011;69667;52.136;5.424;2023-05-10T08:09:28;13.75;;;7.13;;
76693;SDS011;69667;52.136;5.424;2023-05-10T08:11:55;14.23;;;6.22;;
76693;SDS011;69667;52.136;5.424;2023-05-10T08:14:22;15.30;;;7.15;;
76693;SDS011;69667;52.136;5.424;2023-05-10T08:16:49;14.75;;;6.57;;
76693;SDS011;69667;52.136;5.424;2023-05-10T08:19:15;12.45;;;6.53;;
76693;SDS011;69667;52.136;5.424;2023-05-10T08:21:45;16.27;;;7.63;;
76693;SDS011;69667;52.136;5.424;2023-05-10T08:24:14;16.23;;;7.70;;
76693;SDS011;69667;52.136;5.424;2023-05-10T08:26:41;13.65;;;6.97;;
76693;SDS011;69667;52.136;5.424;2023-05-10T08:29:07;17.50;;;7.65;;
76693;SDS011;69667;52.136;5.424;2023-05-10T08:31:34;15.27;;;6.88;;
76693;SDS011;69667;52.136;5.424;2023-05-10T08:34:00;16.67;;;7.85;;
76693;SDS011;69667;52.136;5.424;2023-05-10T08:36:27;17.42;;;7.93;;
76693;SDS011;69667;52.136;5.424;2023-05-10T08:38:54;16.02;;;7.57;;
76693;SDS011;69667;52.136;5.424;2023-05-10T08:41:21;16.92;;;8.45;;
76693;SDS011;69667;52.136;5.424;2023-05-10T08:46:17;16.85;;;7.60;;
76693;SDS011;69667;52.136;5.424;2023-05-10T08:48:45;18.27;;;8.68;;
76693;SDS011;69667;52.136;5.424;2023-05-10T08:51:14;15.35;;;7.68;;
76693;SDS011;69667;52.136;5.424;2023-05-10T08:53:44;17.30;;;8.57;;
76693;SDS011;69667;52.136;5.424;2023-05-10T08:56:11;14.85;;;7.75;;
76693;SDS011;69667;52.136;5.424;2023-05-10T08:58:38;17.80;;;8.48;;
76693;SDS011;69667;52.136;5.424;2023-05-10T09:01:04;15.60;;;8.20;;
76693;SDS011;69667;52.136;5.424;2023-05-10T09:03:32;16.30;;;6.72;;
76693;SDS011;69667;52.136;5.424;2023-05-10T09:05:58;13.02;;;7.60;;
76693;SDS011;69667;52.136;5.424;2023-05-10T09:08:25;14.00;;;7.60;;
76693;SDS011;69667;52.136;5.424;2023-05-10T09:10:53;13.52;;;6.97;;
76693;SDS011;69667;52.136;5.424;2023-05-10T09:13:21;12.95;;;7.07;;
76693;SDS011;69667;52.136;5.424;2023-05-10T09:15:49;15.90;;;6.95;;
76693;SDS011;69667;52.136;5.424;2023-05-10T09:18:15;13.20;;;6.25;;
76693;SDS011;69667;52.136;5.424;2023-05-10T09:20:42;12.18;;;6.35;;
76693;SDS011;69667;52.136;5.424;2023-05-10T09:23:09;10.35;;;5.38;;
76693;SDS011;69667;52.136;5.424;2023-05-10T09:25:36;14.23;;;5.45;;
76693;SDS011;69667;52.136;5.424;2023-05-10T09:28:07;10.60;;;4.90;;
76693;SDS011;69667;52.136;5.424;2023-05-10T09:30:35;10.20;;;4.40;;
76693;SDS011;69667;52.136;5.424;2023-05-10T09:33:02;6.82;;;3.45;;
76693;SDS011;69667;52.136;5.424;2023-05-10T09:35:30;6.47;;;3.42;;
76693;SDS011;69667;52.136;5.424;2023-05-10T09:38:02;7.07;;;3.00;;
76693;SDS011;69667;52.136;5.424;2023-05-10T09:40:31;8.93;;;3.83;;
76693;SDS011;69667;52.136;5.424;2023-05-10T09:43:01;7.47;;;3.28;;
76693;SDS011;69667;52.136;5.424;2023-05-10T09:45:30;6.32;;;3.47;;
76693;SDS011;69667;52.136;5.424;2023-05-10T09:47:58;17.02;;;7.25;;
76693;SDS011;69667;52.136;5.424;2023-05-10T09:50:26;12.55;;;5.20;;
76693;SDS011;69667;52.136;5.424;2023-05-10T09:52:53;7.40;;;3.42;;
76693;SDS011;69667;52.136;5.424;2023-05-10T09:55:22;6.75;;;3.15;;
76693;SDS011;69667;52.136;5.424;2023-05-10T09:58:00;7.20;;;3.20;;
76693;SDS011;69667;52.136;5.424;2023-05-10T10:00:28;8.73;;;3.30;;
76693;SDS011;69667;52.136;5.424;2023-05-10T10:03:01;7.38;;;4.13;;
76693;SDS011;69667;52.136;5.424;2023-05-10T10:05:31;7.72;;;3.88;;
76693;SDS011;69667;52.136;5.424;2023-05-10T10:07:59;7.28;;;4.15;;
76693;SDS011;69667;52.136;5.424;2023-05-10T10:10:30;8.35;;;4.28;;
76693;SDS011;69667;52.136;5.424;2023-05-10T10:12:58;5.85;;;3.58;;
76693;SDS011;69667;52.136;5.424;2023-05-10T10:15:25;7.30;;;4.40;;
76693;SDS011;69667;52.136;5.424;2023-05-10T10:17:52;7.20;;;4.10;;
76693;SDS011;69667;52.136;5.424;2023-05-10T10:20:20;7.70;;;3.95;;
76693;SDS011;69667;52.136;5.424;2023-05-10T10:22:48;11.38;;;4.47;;
76693;SDS011;69667;52.136;5.424;2023-05-10T10:25:15;7.60;;;3.92;;
76693;SDS011;69667;52.136;5.424;2023-05-10T10:30:27;8.63;;;4.30;;
76693;SDS011;69667;52.136;5.424;2023-05-10T10:35:53;7.45;;;4.20;;
76693;SDS011;69667;52.136;5.424;2023-05-10T10:38:21;7.95;;;4.38;;
76693;SDS011;69667;52.136;5.424;2023-05-10T10:40:48;5.97;;;4.07;;
76693;SDS011;69667;52.136;5.424;2023-05-10T10:43:28;8.00;;;4.25;;
76693;SDS011;69667;52.136;5.424;2023-05-10T10:46:11;8.90;;;4.47;;
76693;SDS011;69667;52.136;5.424;2023-05-10T10:48:40;8.48;;;4.57;;
76693;SDS011;69667;52.136;5.424;2023-05-10T10:51:08;8.00;;;4.75;;
76693;SDS011;69667;52.136;5.424;2023-05-10T10:53:37;8.30;;;4.63;;
76693;SDS011;69667;52.136;5.424;2023-05-10T10:56:04;7.15;;;4.22;;
76693;SDS011;69667;52.136;5.424;2023-05-10T10:58:36;10.27;;;4.32;;
76693;SDS011;69667;52.136;5.424;2023-05-10T11:06:29;8.43;;;4.07;;
76693;SDS011;69667;52.136;5.424;2023-05-10T11:09:07;7.60;;;3.80;;
76693;SDS011;69667;52.136;5.424;2023-05-10T11:11:35;7.70;;;3.92;;
76693;SDS011;69667;52.136;5.424;2023-05-10T11:14:04;7.50;;;3.95;;
76693;SDS011;69667;52.136;5.424;2023-05-10T11:16:41;8.05;;;3.92;;
76693;SDS011;69667;52.136;5.424;2023-05-10T11:19:13;7.55;;;3.33;;
76693;SDS011;69667;52.136;5.424;2023-05-10T11:21:51;7.00;;;3.95;;
76693;SDS011;69667;52.136;5.424;2023-05-10T11:24:39;8.40;;;3.95;;
76693;SDS011;69667;52.136;5.424;2023-05-10T11:27:05;8.77;;;4.18;;
76693;SDS011;69667;52.136;5.424;2023-05-10T11:29:32;8.38;;;4.13;;
76693;SDS011;69667;52.136;5.424;2023-05-10T11:31:59;5.70;;;3.83;;
76693;SDS011;69667;52.136;5.424;2023-05-10T11:34:27;7.80;;;3.90;;
76693;SDS011;69667;52.136;5.424;2023-05-10T11:36:56;6.95;;;3.88;;
76693;SDS011;69667;52.136;5.424;2023-05-10T11:39:26;6.63;;;3.95;;
76693;SDS011;69667;52.136;5.424;2023-05-10T11:41:54;6.22;;;3.60;;
76693;SDS011;69667;52.136;5.424;2023-05-10T11:44:21;9.95;;;4.25;;
76693;SDS011;69667;52.136;5.424;2023-05-10T11:46:48;7.15;;;3.85;;
76693;SDS011;69667;52.136;5.424;2023-05-10T11:49:15;5.78;;;3.38;;
76693;SDS011;69667;52.136;5.424;2023-05-10T11:51:42;6.60;;;3.30;;
76693;SDS011;69667;52.136;5.424;2023-05-10T11:54:10;5.38;;;3.00;;
76693;SDS011;69667;52.136;5.424;2023-05-10T11:56:37;10.52;;;3.35;;
76693;SDS011;69667;52.136;5.424;2023-05-10T11:59:05;6.95;;;3.08;;
76693;SDS011;69667;52.136;5.424;2023-05-10T12:01:32;5.55;;;2.95;;
76693;SDS011;69667;52.136;5.424;2023-05-10T12:04:00;7.93;;;3.17;;
76693;SDS011;69667;52.136;5.424;2023-05-10T12:06:27;7.13;;;2.95;;
76693;SDS011;69667;52.136;5.424;2023-05-10T12:08:57;10.27;;;2.83;;
76693;SDS011;69667;52.136;5.424;2023-05-10T12:11:24;7.45;;;2.90;;
76693;SDS011;69667;52.136;5.424;2023-05-10T12:13:52;4.80;;;2.88;;
76693;SDS011;69667;52.136;5.424;2023-05-10T12:16:20;5.55;;;2.80;;
76693;SDS011;69667;52.136;5.424;2023-05-10T12:18:59;6.43;;;2.67;;
76693;SDS011;69667;52.136;5.424;2023-05-10T12:21:29;5.40;;;2.03;;
76693;SDS011;69667;52.136;5.424;2023-05-10T12:24:00;5.20;;;2.35;;
76693;SDS011;69667;52.136;5.424;2023-05-10T12:26:28;3.67;;;2.22;;
76693;SDS011;69667;52.136;5.424;2023-05-10T12:29:10;6.43;;;2.13;;
76693;SDS011;69667;52.136;5.424;2023-05-10T12:31:55;4.80;;;2.58;;
76693;SDS011;69667;52.136;5.424;2023-05-10T12:34:24;6.22;;;2.83;;
76693;SDS011;69667;52.136;5.424;2023-05-10T12:36:52;5.90;;;2.83;;
76693;SDS011;69667;52.136;5.424;2023-05-10T12:39:20;4.15;;;2.33;;
76693;SDS011;69667;52.136;5.424;2023-05-10T12:41:46;5.63;;;2.15;;
76693;SDS011;69667;52.136;5.424;2023-05-10T12:44:12;4.43;;;1.75;;
76693;SDS011;69667;52.136;5.424;2023-05-10T12:46:40;5.07;;;2.10;;
76693;SDS011;69667;52.136;5.424;2023-05-10T12:49:07;5.00;;;2.28;;
76693;SDS011;69667;52.136;5.424;2023-05-10T12:51:35;3.53;;;1.90;;
76693;SDS011;69667;52.136;5.424;2023-05-10T12:54:02;3.85;;;2.00;;
76693;SDS011;69667;52.136;5.424;2023-05-10T12:56:29;3.25;;;1.80;;
76693;SDS011;69667;52.136;5.424;2023-05-10T12:58:55;4.22;;;2.33;;
76693;SDS011;69667;52.136;5.424;2023-05-10T13:01:22;4.32;;;1.83;;
76693;SDS011;69667;52.136;5.424;2023-05-10T13:03:51;3.10;;;1.80;;
76693;SDS011;69667;52.136;5.424;2023-05-10T13:06:18;5.20;;;2.17;;
76693;SDS011;69667;52.136;5.424;2023-05-10T13:08:44;4.60;;;2.15;;
76693;SDS011;69667;52.136;5.424;2023-05-10T13:11:11;5.13;;;2.20;;
76693;SDS011;69667;52.136;5.424;2023-05-10T13:13:37;4.30;;;1.90;;
76693;SDS011;69667;52.136;5.424;2023-05-10T13:16:04;3.10;;;2.08;;
76693;SDS011;69667;52.136;5.424;2023-05-10T13:18:30;2.65;;;1.50;;
76693;SDS011;69667;52.136;5.424;2023-05-10T13:20:57;4.20;;;2.20;;
76693;SDS011;69667;52.136;5.424;2023-05-10T13:23:24;3.70;;;2.38;;
76693;SDS011;69667;52.136;5.424;2023-05-10T13:25:50;5.95;;;3.42;;
76693;SDS011;69667;52.136;5.424;2023-05-10T13:28:17;6.65;;;3.88;;
76693;SDS011;69667;52.136;5.424;2023-05-10T13:30:43;8.88;;;4.28;;
76693;SDS011;69667;52.136;5.424;2023-05-10T13:33:10;6.85;;;3.83;;
76693;SDS011;69667;52.136;5.424;2023-05-10T13:35:36;8.82;;;4.50;;
76693;SDS011;69667;52.136;5.424;2023-05-10T13:38:03;9.48;;;4.32;;
76693;SDS011;69667;52.136;5.424;2023-05-10T13:40:29;8.75;;;3.70;;
76693;SDS011;69667;52.136;5.424;2023-05-10T13:42:56;7.43;;;4.28;;
76693;SDS011;69667;52.136;5.424;2023-05-10T13:45:22;9.27;;;4.30;;
76693;SDS011;69667;52.136;5.424;2023-05-10T13:47:49;10.30;;;4.35;;
76693;SDS011;69667;52.136;5.424;2023-05-10T13:50:16;10.73;;;4.75;;
76693;SDS011;69667;52.136;5.424;2023-05-10T13:52:43;9.10;;;4.00;;
76693;SDS011;69667;52.136;5.424;2023-05-10T13:55:09;9.43;;;3.83;;
76693;SDS011;69667;52.136;5.424;2023-05-10T13:57:38;10.13;;;4.60;;
76693;SDS011;69667;52.136;5.424;2023-05-10T14:00:05;9.20;;;4.55;;
76693;SDS011;69667;52.136;5.424;2023-05-10T14:02:33;9.90;;;4.45;;
76693;SDS011;69667;52.136;5.424;2023-05-10T14:05:00;9.93;;;4.55;;
76693;SDS011;69667;52.136;5.424;2023-05-10T14:07:27;11.13;;;4.32;;
76693;SDS011;69667;52.136;5.424;2023-05-10T14:09:53;9.20;;;4.03;;
76693;SDS011;69667;52.136;5.424;2023-05-10T14:12:20;11.93;;;4.57;;
76693;SDS011;69667;52.136;5.424;2023-05-10T14:14:46;11.88;;;4.32;;
76693;SDS011;69667;52.136;5.424;2023-05-10T14:17:13;9.93;;;4.60;;
76693;SDS011;69667;52.136;5.424;2023-05-10T14:19:39;7.60;;;4.10;;
76693;SDS011;69667;52.136;5.424;2023-05-10T14:22:06;8.40;;;4.00;;
76693;SDS011;69667;52.136;5.424;2023-05-10T14:24:32;9.77;;;4.60;;
76693;SDS011;69667;52.136;5.424;2023-05-10T14:26:59;11.02;;;4.72;;
76693;SDS011;69667;52.136;5.424;2023-05-10T14:29:26;10.50;;;4.43;;
76693;SDS011;69667;52.136;5.424;2023-05-10T14:31:54;11.82;;;5.07;;
76693;SDS011;69667;52.136;5.424;2023-05-10T14:34:21;12.75;;;5.03;;
76693;SDS011;69667;52.136;5.424;2023-05-10T14:36:47;11.38;;;4.90;;
76693;SDS011;69667;52.136;5.424;2023-05-10T14:39:14;10.98;;;4.68;;
76693;SDS011;69667;52.136;5.424;2023-05-10T14:41:41;10.55;;;5.10;;
76693;SDS011;69667;52.136;5.424;2023-05-10T14:44:09;10.05;;;4.88;;
76693;SDS011;69667;52.136;5.424;2023-05-10T14:46:36;10.38;;;4.57;;
76693;SDS011;69667;52.136;5.424;2023-05-10T14:49:02;11.25;;;4.70;;
76693;SDS011;69667;52.136;5.424;2023-05-10T14:51:29;11.20;;;5.15;;
76693;SDS011;69667;52.136;5.424;2023-05-10T14:53:55;11.65;;;4.57;;
76693;SDS011;69667;52.136;5.424;2023-05-10T14:56:22;10.43;;;4.65;;
76693;SDS011;69667;52.136;5.424;2023-05-10T14:58:49;12.80;;;4.97;;
76693;SDS011;69667;52.136;5.424;2023-05-10T15:01:16;12.13;;;5.35;;
76693;SDS011;69667;52.136;5.424;2023-05-10T15:03:43;12.88;;;5.13;;
76693;SDS011;69667;52.136;5.424;2023-05-10T15:06:10;9.85;;;4.90;;
76693;SDS011;69667;52.136;5.424;2023-05-10T15:08:37;12.02;;;5.45;;